sensor_id;sensor_type;location;lat;lon;timestamp;temperature;humidity
19180;DHT22;9722;48.754;8.868;2023-02-13T00:01:42;-0.80;99.90
19180;DHT22;9722;48.754;8.868;2023-02-13T00:05:03;-0.80;99.90
19180;DHT22;9722;48.754;8.868;2023-02-13T00:08:23;-0.80;99.90
19180;DHT22;9722;48.754;8.868;2023-02-13T00:11:44;-0.80;99.90
19180;DHT22;9722;48.754;8.868;2023-02-13T00:15:04;-0.80;99.90
19180;DHT22;9722;48.754;8.868;2023-02-13T00:18:27;-0.80;99.90
19180;DHT22;9722;48.754;8.868;2023-02-13T00:21:47;-0.80;99.90
19180;DHT22;9722;48.754;8.868;2023-02-13T00:25:08;-0.80;99.90
19180;DHT22;9722;48.754;8.868;2023-02-13T00:28:29;-0.90;99.90
19180;DHT22;9722;48.754;8.868;2023-02-13T00:31:49;-0.90;99.90
19180;DHT22;9722;48.754;8.868;2023-02-13T00:35:10;-0.90;99.90
19180;DHT22;9722;48.754;8.868;2023-02-13T00:38:30;-0.80;99.90
19180;DHT22;9722;48.754;8.868;2023-02-13T00:41:51;-0.80;99.90
19180;DHT22;9722;48.754;8.868;2023-02-13T00:45:11;-0.80;99.90
19180;DHT22;9722;48.754;8.868;2023-02-13T00:48:33;-0.90;99.90
19180;DHT22;9722;48.754;8.868;2023-02-13T00:51:54;-0.80;99.90
19180;DHT22;9722;48.754;8.868;2023-02-13T00:55:14;-0.80;99.90
19180;DHT22;9722;48.754;8.868;2023-02-13T00:58:35;-0.80;99.90
19180;DHT22;9722;48.754;8.868;2023-02-13T01:01:55;-0.80;99.90
19180;DHT22;9722;48.754;8.868;2023-02-13T01:05:16;-0.80;99.90
19180;DHT22;9722;48.754;8.868;2023-02-13T01:08:40;-0.80;99.90
19180;DHT22;9722;48.754;8.868;2023-02-13T01:12:01;-0.80;99.90
19180;DHT22;9722;48.754;8.868;2023-02-13T01:15:22;-0.80;99.90
19180;DHT22;9722;48.754;8.868;2023-02-13T01:18:43;-0.90;99.90
19180;DHT22;9722;48.754;8.868;2023-02-13T01:22:03;-0.90;99.90
19180;DHT22;9722;48.754;8.868;2023-02-13T01:25:24;-0.90;99.90
19180;DHT22;9722;48.754;8.868;2023-02-13T01:28:44;-0.90;99.90
19180;DHT22;9722;48.754;8.868;2023-02-13T01:32:05;-1.00;99.90
19180;DHT22;9722;48.754;8.868;2023-02-13T01:35:26;-1.00;99.90
19180;DHT22;9722;48.754;8.868;2023-02-13T01:38:47;-1.00;99.90
19180;DHT22;9722;48.754;8.868;2023-02-13T01:42:16;-0.90;99.90
19180;DHT22;9722;48.754;8.868;2023-02-13T01:45:37;-1.00;99.90
19180;DHT22;9722;48.754;8.868;2023-02-13T01:49:04;-1.00;99.90
19180;DHT22;9722;48.754;8.868;2023-02-13T01:52:29;-1.00;99.90
19180;DHT22;9722;48.754;8.868;2023-02-13T01:55:55;-1.00;99.90
19180;DHT22;9722;48.754;8.868;2023-02-13T01:59:22;-1.00;99.90
19180;DHT22;9722;48.754;8.868;2023-02-13T02:02:52;-1.00;99.90
19180;DHT22;9722;48.754;8.868;2023-02-13T02:06:24;-1.10;99.90
19180;DHT22;9722;48.754;8.868;2023-02-13T02:09:46;-1.10;99.90
19180;DHT22;9722;48.754;8.868;2023-02-13T02:13:12;-1.10;99.90
19180;DHT22;9722;48.754;8.868;2023-02-13T02:16:33;-1.10;99.90
19180;DHT22;9722;48.754;8.868;2023-02-13T02:23:46;-1.10;99.90
19180;DHT22;9722;48.754;8.868;2023-02-13T02:31:36;-1.20;99.90
19180;DHT22;9722;48.754;8.868;2023-02-13T02:35:24;-1.30;99.90
19180;DHT22;9722;48.754;8.868;2023-02-13T02:38:59;-1.30;99.90
19180;DHT22;9722;48.754;8.868;2023-02-13T02:42:29;-1.30;99.90
19180;DHT22;9722;48.754;8.868;2023-02-13T02:46:20;-1.40;99.90
19180;DHT22;9722;48.754;8.868;2023-02-13T02:49:44;-1.40;99.90
19180;DHT22;9722;48.754;8.868;2023-02-13T02:56:51;-1.30;99.90
19180;DHT22;9722;48.754;8.868;2023-02-13T03:00:17;-1.30;99.90
19180;DHT22;9722;48.754;8.868;2023-02-13T03:03:57;-1.30;99.90
19180;DHT22;9722;48.754;8.868;2023-02-13T03:07:36;-1.30;99.90
19180;DHT22;9722;48.754;8.868;2023-02-13T03:10:57;-1.30;99.90
19180;DHT22;9722;48.754;8.868;2023-02-13T03:14:36;-1.40;99.90
19180;DHT22;9722;48.754;8.868;2023-02-13T03:17:57;-1.40;99.90
19180;DHT22;9722;48.754;8.868;2023-02-13T03:21:55;-1.40;99.90
19180;DHT22;9722;48.754;8.868;2023-02-13T03:30:12;-1.50;99.90
19180;DHT22;9722;48.754;8.868;2023-02-13T03:34:03;-1.50;99.90
19180;DHT22;9722;48.754;8.868;2023-02-13T03:37:32;-1.50;99.90
19180;DHT22;9722;48.754;8.868;2023-02-13T03:41:18;-1.50;99.90
19180;DHT22;9722;48.754;8.868;2023-02-13T03:44:45;-1.50;99.90
19180;DHT22;9722;48.754;8.868;2023-02-13T03:48:32;-1.50;99.90
19180;DHT22;9722;48.754;8.868;2023-02-13T03:52:18;-1.50;99.90
19180;DHT22;9722;48.754;8.868;2023-02-13T03:55:45;-1.50;99.90
19180;DHT22;9722;48.754;8.868;2023-02-13T03:59:29;-1.50;99.90
19180;DHT22;9722;48.754;8.868;2023-02-13T04:02:57;-1.60;99.90
19180;DHT22;9722;48.754;8.868;2023-02-13T04:10:02;-1.60;99.90
19180;DHT22;9722;48.754;8.868;2023-02-13T04:13:34;-1.60;99.90
19180;DHT22;9722;48.754;8.868;2023-02-13T04:17:05;-1.60;99.90
19180;DHT22;9722;48.754;8.868;2023-02-13T04:20:27;-1.60;99.90
19180;DHT22;9722;48.754;8.868;2023-02-13T04:23:47;-1.60;99.90
19180;DHT22;9722;48.754;8.868;2023-02-13T04:27:12;-1.60;99.90
19180;DHT22;9722;48.754;8.868;2023-02-13T04:30:34;-1.70;99.90
19180;DHT22;9722;48.754;8.868;2023-02-13T04:33:55;-1.70;99.90
19180;DHT22;9722;48.754;8.868;2023-02-13T04:37:15;-1.70;99.90
19180;DHT22;9722;48.754;8.868;2023-02-13T04:40:36;-1.70;99.90
19180;DHT22;9722;48.754;8.868;2023-02-13T04:43:56;-1.70;99.90
19180;DHT22;9722;48.754;8.868;2023-02-13T04:47:17;-1.70;99.90
19180;DHT22;9722;48.754;8.868;2023-02-13T04:50:37;-1.70;99.90
19180;DHT22;9722;48.754;8.868;2023-02-13T04:53:58;-1.80;99.90
19180;DHT22;9722;48.754;8.868;2023-02-13T04:57:18;-1.80;99.90
19180;DHT22;9722;48.754;8.868;2023-02-13T05:00:39;-1.80;99.90
19180;DHT22;9722;48.754;8.868;2023-02-13T05:03:59;-1.80;99.90
19180;DHT22;9722;48.754;8.868;2023-02-13T05:07:20;-1.80;99.90
19180;DHT22;9722;48.754;8.868;2023-02-13T05:10:40;-1.80;99.90
19180;DHT22;9722;48.754;8.868;2023-02-13T05:14:01;-1.80;99.90
19180;DHT22;9722;48.754;8.868;2023-02-13T05:17:21;-1.80;99.90
19180;DHT22;9722;48.754;8.868;2023-02-13T05:20:42;-1.80;99.90
19180;DHT22;9722;48.754;8.868;2023-02-13T05:24:02;-1.90;99.90
19180;DHT22;9722;48.754;8.868;2023-02-13T05:27:23;-1.90;99.90
19180;DHT22;9722;48.754;8.868;2023-02-13T05:30:44;-1.90;99.90
19180;DHT22;9722;48.754;8.868;2023-02-13T05:34:05;-1.90;99.90
19180;DHT22;9722;48.754;8.868;2023-02-13T05:37:25;-1.90;99.90
19180;DHT22;9722;48.754;8.868;2023-02-13T05:40:46;-1.90;99.90
19180;DHT22;9722;48.754;8.868;2023-02-13T05:44:07;-1.90;99.90
19180;DHT22;9722;48.754;8.868;2023-02-13T05:47:27;-1.90;99.90
19180;DHT22;9722;48.754;8.868;2023-02-13T05:50:48;-1.90;99.90
19180;DHT22;9722;48.754;8.868;2023-02-13T05:54:08;-1.90;99.90
19180;DHT22;9722;48.754;8.868;2023-02-13T05:57:29;-1.90;99.90
19180;DHT22;9722;48.754;8.868;2023-02-13T06:00:49;-1.90;99.90
19180;DHT22;9722;48.754;8.868;2023-02-13T06:04:10;-1.90;99.90
19180;DHT22;9722;48.754;8.868;2023-02-13T06:07:30;-1.90;99.90
19180;DHT22;9722;48.754;8.868;2023-02-13T06:10:51;-1.90;99.90
19180;DHT22;9722;48.754;8.868;2023-02-13T06:14:11;-1.90;99.90
19180;DHT22;9722;48.754;8.868;2023-02-13T06:17:33;-1.90;99.90
19180;DHT22;9722;48.754;8.868;2023-02-13T06:20:54;-1.90;99.90
19180;DHT22;9722;48.754;8.868;2023-02-13T06:24:14;-2.00;99.90
19180;DHT22;9722;48.754;8.868;2023-02-13T06:27:35;-2.00;99.90
19180;DHT22;9722;48.754;8.868;2023-02-13T06:30:55;-2.10;99.90
19180;DHT22;9722;48.754;8.868;2023-02-13T06:34:16;-2.20;99.90
19180;DHT22;9722;48.754;8.868;2023-02-13T06:37:36;-2.20;99.90
19180;DHT22;9722;48.754;8.868;2023-02-13T06:40:59;-2.20;99.90
19180;DHT22;9722;48.754;8.868;2023-02-13T06:44:21;-2.20;99.90
19180;DHT22;9722;48.754;8.868;2023-02-13T06:47:46;-2.10;99.90
19180;DHT22;9722;48.754;8.868;2023-02-13T06:51:07;-2.10;99.90
19180;DHT22;9722;48.754;8.868;2023-02-13T06:54:27;-2.10;99.90
19180;DHT22;9722;48.754;8.868;2023-02-13T06:57:48;-2.10;99.90
19180;DHT22;9722;48.754;8.868;2023-02-13T07:01:08;-2.00;99.90
19180;DHT22;9722;48.754;8.868;2023-02-13T07:04:29;-2.00;99.90
19180;DHT22;9722;48.754;8.868;2023-02-13T07:07:49;-1.90;99.90
19180;DHT22;9722;48.754;8.868;2023-02-13T07:11:20;-1.90;99.90
19180;DHT22;9722;48.754;8.868;2023-02-13T07:14:40;-1.80;99.90
19180;DHT22;9722;48.754;8.868;2023-02-13T07:18:01;-1.70;99.90
19180;DHT22;9722;48.754;8.868;2023-02-13T07:21:22;-1.70;99.90
19180;DHT22;9722;48.754;8.868;2023-02-13T07:24:42;-1.50;99.90
19180;DHT22;9722;48.754;8.868;2023-02-13T07:28:04;-0.70;99.90
19180;DHT22;9722;48.754;8.868;2023-02-13T07:31:25;0.20;99.90
19180;DHT22;9722;48.754;8.868;2023-02-13T07:34:46;1.20;99.90
19180;DHT22;9722;48.754;8.868;2023-02-13T07:38:06;2.10;99.90
19180;DHT22;9722;48.754;8.868;2023-02-13T07:41:27;3.00;99.90
19180;DHT22;9722;48.754;8.868;2023-02-13T07:44:47;3.90;99.40
19180;DHT22;9722;48.754;8.868;2023-02-13T07:48:08;4.70;97.40
19180;DHT22;9722;48.754;8.868;2023-02-13T07:51:28;5.40;95.30
19180;DHT22;9722;48.754;8.868;2023-02-13T07:54:49;6.10;93.30
19180;DHT22;9722;48.754;8.868;2023-02-13T07:58:10;6.80;91.30
19180;DHT22;9722;48.754;8.868;2023-02-13T08:01:31;7.40;89.40
19180;DHT22;9722;48.754;8.868;2023-02-13T08:04:51;7.90;83.80
19180;DHT22;9722;48.754;8.868;2023-02-13T08:08:12;8.20;79.50
19180;DHT22;9722;48.754;8.868;2023-02-13T08:11:32;8.50;77.00
19180;DHT22;9722;48.754;8.868;2023-02-13T08:15:13;9.00;75.20
19180;DHT22;9722;48.754;8.868;2023-02-13T08:18:34;9.70;72.40
19180;DHT22;9722;48.754;8.868;2023-02-13T08:21:54;10.40;68.70
19180;DHT22;9722;48.754;8.868;2023-02-13T08:25:15;11.00;66.10
19180;DHT22;9722;48.754;8.868;2023-02-13T08:28:35;11.70;64.30
19180;DHT22;9722;48.754;8.868;2023-02-13T08:31:56;12.30;61.90
19180;DHT22;9722;48.754;8.868;2023-02-13T08:35:16;12.80;59.30
19180;DHT22;9722;48.754;8.868;2023-02-13T08:38:37;13.20;58.20
19180;DHT22;9722;48.754;8.868;2023-02-13T08:41:58;13.70;56.80
19180;DHT22;9722;48.754;8.868;2023-02-13T08:45:18;14.10;55.90
19180;DHT22;9722;48.754;8.868;2023-02-13T08:48:39;14.50;54.90
19180;DHT22;9722;48.754;8.868;2023-02-13T08:52:00;15.00;54.20
19180;DHT22;9722;48.754;8.868;2023-02-13T08:55:21;15.50;53.10
19180;DHT22;9722;48.754;8.868;2023-02-13T08:58:41;16.00;52.30
19180;DHT22;9722;48.754;8.868;2023-02-13T09:02:02;16.50;51.40
19180;DHT22;9722;48.754;8.868;2023-02-13T09:05:22;17.00;50.20
19180;DHT22;9722;48.754;8.868;2023-02-13T09:08:43;17.30;49.30
19180;DHT22;9722;48.754;8.868;2023-02-13T09:12:04;17.60;48.80
19180;DHT22;9722;48.754;8.868;2023-02-13T09:15:24;18.00;48.40
19180;DHT22;9722;48.754;8.868;2023-02-13T09:18:49;18.40;47.60
19180;DHT22;9722;48.754;8.868;2023-02-13T09:22:09;18.70;46.40
19180;DHT22;9722;48.754;8.868;2023-02-13T09:25:30;18.90;46.10
19180;DHT22;9722;48.754;8.868;2023-02-13T09:28:50;19.20;45.50
19180;DHT22;9722;48.754;8.868;2023-02-13T09:32:11;19.50;45.40
19180;DHT22;9722;48.754;8.868;2023-02-13T09:35:31;20.00;44.90
19180;DHT22;9722;48.754;8.868;2023-02-13T09:38:53;20.30;44.10
19180;DHT22;9722;48.754;8.868;2023-02-13T09:42:19;20.40;43.30
19180;DHT22;9722;48.754;8.868;2023-02-13T09:45:42;20.60;42.80
19180;DHT22;9722;48.754;8.868;2023-02-13T09:49:13;20.80;42.50
19180;DHT22;9722;48.754;8.868;2023-02-13T09:52:36;20.90;42.00
19180;DHT22;9722;48.754;8.868;2023-02-13T09:56:08;21.00;41.50
19180;DHT22;9722;48.754;8.868;2023-02-13T09:59:38;20.90;41.00
19180;DHT22;9722;48.754;8.868;2023-02-13T10:06:31;20.80;40.70
19180;DHT22;9722;48.754;8.868;2023-02-13T10:10:14;20.70;40.30
19180;DHT22;9722;48.754;8.868;2023-02-13T10:13:49;20.90;40.30
19180;DHT22;9722;48.754;8.868;2023-02-13T10:17:37;21.10;39.90
19180;DHT22;9722;48.754;8.868;2023-02-13T10:21:01;21.30;39.20
19180;DHT22;9722;48.754;8.868;2023-02-13T10:27:59;21.30;38.70
19180;DHT22;9722;48.754;8.868;2023-02-13T10:31:22;21.30;38.60
19180;DHT22;9722;48.754;8.868;2023-02-13T10:34:45;21.40;38.50
19180;DHT22;9722;48.754;8.868;2023-02-13T10:38:15;21.60;38.10
19180;DHT22;9722;48.754;8.868;2023-02-13T10:42:15;21.70;37.60
19180;DHT22;9722;48.754;8.868;2023-02-13T10:56:38;22.20;36.90
19180;DHT22;9722;48.754;8.868;2023-02-13T11:00:09;22.30;36.80
19180;DHT22;9722;48.754;8.868;2023-02-13T11:03:31;22.40;36.70
19180;DHT22;9722;48.754;8.868;2023-02-13T11:06:59;22.40;36.40
19180;DHT22;9722;48.754;8.868;2023-02-13T11:10:22;22.20;36.40
19180;DHT22;9722;48.754;8.868;2023-02-13T11:13:42;22.30;36.60
19180;DHT22;9722;48.754;8.868;2023-02-13T11:17:05;22.10;36.40
19180;DHT22;9722;48.754;8.868;2023-02-13T11:20:35;22.00;36.50
19180;DHT22;9722;48.754;8.868;2023-02-13T11:23:56;22.00;36.70
19180;DHT22;9722;48.754;8.868;2023-02-13T11:27:23;22.40;36.60
19180;DHT22;9722;48.754;8.868;2023-02-13T11:30:46;22.50;36.20
19180;DHT22;9722;48.754;8.868;2023-02-13T11:34:37;22.90;36.00
19180;DHT22;9722;48.754;8.868;2023-02-13T11:38:27;23.70;35.50
19180;DHT22;9722;48.754;8.868;2023-02-13T11:41:48;24.20;34.60
19180;DHT22;9722;48.754;8.868;2023-02-13T11:45:23;24.30;34.10
19180;DHT22;9722;48.754;8.868;2023-02-13T11:52:30;23.60;34.20
19180;DHT22;9722;48.754;8.868;2023-02-13T11:59:26;23.80;34.10
19180;DHT22;9722;48.754;8.868;2023-02-13T12:02:48;24.10;33.90
19180;DHT22;9722;48.754;8.868;2023-02-13T12:06:13;24.50;33.70
19180;DHT22;9722;48.754;8.868;2023-02-13T12:09:37;24.90;33.20
19180;DHT22;9722;48.754;8.868;2023-02-13T12:13:14;24.90;32.70
19180;DHT22;9722;48.754;8.868;2023-02-13T12:16:46;24.70;32.40
19180;DHT22;9722;48.754;8.868;2023-02-13T12:20:16;24.80;32.60
19180;DHT22;9722;48.754;8.868;2023-02-13T12:31:13;24.40;32.40
19180;DHT22;9722;48.754;8.868;2023-02-13T12:35:37;24.10;32.70
19180;DHT22;9722;48.754;8.868;2023-02-13T12:45:50;25.40;32.10
19180;DHT22;9722;48.754;8.868;2023-02-13T13:07:44;25.40;31.80
19180;DHT22;9722;48.754;8.868;2023-02-13T13:11:33;25.60;31.90
19180;DHT22;9722;48.754;8.868;2023-02-13T13:15:10;25.80;31.80
19180;DHT22;9722;48.754;8.868;2023-02-13T13:18:38;25.80;31.50
19180;DHT22;9722;48.754;8.868;2023-02-13T13:22:04;25.80;31.70
19180;DHT22;9722;48.754;8.868;2023-02-13T13:29:17;26.30;31.60
19180;DHT22;9722;48.754;8.868;2023-02-13T13:32:40;26.70;31.00
19180;DHT22;9722;48.754;8.868;2023-02-13T13:36:46;26.90;31.00
19180;DHT22;9722;48.754;8.868;2023-02-13T13:40:31;27.00;30.50
19180;DHT22;9722;48.754;8.868;2023-02-13T13:44:06;26.80;30.80
19180;DHT22;9722;48.754;8.868;2023-02-13T13:47:59;26.50;30.80
19180;DHT22;9722;48.754;8.868;2023-02-13T13:51:25;26.20;31.00
19180;DHT22;9722;48.754;8.868;2023-02-13T13:54:46;26.00;31.40
19180;DHT22;9722;48.754;8.868;2023-02-13T13:58:40;26.10;31.90
19180;DHT22;9722;48.754;8.868;2023-02-13T14:06:03;25.70;31.40
19180;DHT22;9722;48.754;8.868;2023-02-13T14:09:38;25.70;31.70
19180;DHT22;9722;48.754;8.868;2023-02-13T14:13:00;25.80;31.60
19180;DHT22;9722;48.754;8.868;2023-02-13T14:16:41;25.50;31.50
19180;DHT22;9722;48.754;8.868;2023-02-13T14:20:19;25.30;31.80
19180;DHT22;9722;48.754;8.868;2023-02-13T14:27:02;24.50;32.50
19180;DHT22;9722;48.754;8.868;2023-02-13T14:30:37;24.40;32.70
19180;DHT22;9722;48.754;8.868;2023-02-13T14:37:28;24.40;32.60
19180;DHT22;9722;48.754;8.868;2023-02-13T14:40:51;24.20;32.90
19180;DHT22;9722;48.754;8.868;2023-02-13T14:48:07;23.70;33.20
19180;DHT22;9722;48.754;8.868;2023-02-13T14:51:45;23.50;33.40
19180;DHT22;9722;48.754;8.868;2023-02-13T14:55:34;23.50;33.50
19180;DHT22;9722;48.754;8.868;2023-02-13T14:59:16;23.40;33.80
19180;DHT22;9722;48.754;8.868;2023-02-13T15:02:59;23.40;33.80
19180;DHT22;9722;48.754;8.868;2023-02-13T15:06:28;23.10;34.00
19180;DHT22;9722;48.754;8.868;2023-02-13T15:10:03;22.80;34.30
19180;DHT22;9722;48.754;8.868;2023-02-13T15:13:30;22.50;34.60
19180;DHT22;9722;48.754;8.868;2023-02-13T15:16:57;22.40;34.80
19180;DHT22;9722;48.754;8.868;2023-02-13T15:20:27;22.10;35.10
19180;DHT22;9722;48.754;8.868;2023-02-13T15:23:57;21.70;35.30
19180;DHT22;9722;48.754;8.868;2023-02-13T15:27:23;21.30;35.80
19180;DHT22;9722;48.754;8.868;2023-02-13T15:31:00;21.00;36.10
19180;DHT22;9722;48.754;8.868;2023-02-13T15:34:24;20.30;36.40
19180;DHT22;9722;48.754;8.868;2023-02-13T15:37:45;18.70;37.30
19180;DHT22;9722;48.754;8.868;2023-02-13T15:41:21;17.10;38.90
19180;DHT22;9722;48.754;8.868;2023-02-13T15:44:48;15.60;40.90
19180;DHT22;9722;48.754;8.868;2023-02-13T15:48:15;14.20;42.60
19180;DHT22;9722;48.754;8.868;2023-02-13T15:51:36;13.30;44.30
19180;DHT22;9722;48.754;8.868;2023-02-13T15:54:56;12.50;45.50
19180;DHT22;9722;48.754;8.868;2023-02-13T15:58:17;11.80;46.60
19180;DHT22;9722;48.754;8.868;2023-02-13T16:01:40;11.30;47.70
19180;DHT22;9722;48.754;8.868;2023-02-13T16:05:04;10.90;48.50
19180;DHT22;9722;48.754;8.868;2023-02-13T16:08:36;10.50;49.70
19180;DHT22;9722;48.754;8.868;2023-02-13T16:12:05;10.10;50.60
19180;DHT22;9722;48.754;8.868;2023-02-13T16:15:28;9.80;51.90
19180;DHT22;9722;48.754;8.868;2023-02-13T16:18:50;9.50;52.80
19180;DHT22;9722;48.754;8.868;2023-02-13T16:25:41;9.10;54.20
19180;DHT22;9722;48.754;8.868;2023-02-13T16:29:02;8.90;54.60
19180;DHT22;9722;48.754;8.868;2023-02-13T16:32:33;8.70;55.20
19180;DHT22;9722;48.754;8.868;2023-02-13T16:39:31;8.30;56.70
19180;DHT22;9722;48.754;8.868;2023-02-13T16:42:52;8.10;57.00
19180;DHT22;9722;48.754;8.868;2023-02-13T16:46:17;7.90;57.70
19180;DHT22;9722;48.754;8.868;2023-02-13T16:49:38;7.70;58.20
19180;DHT22;9722;48.754;8.868;2023-02-13T16:53:00;7.40;58.70
19180;DHT22;9722;48.754;8.868;2023-02-13T16:56:21;7.20;59.40
19180;DHT22;9722;48.754;8.868;2023-02-13T17:03:14;6.80;60.70
19180;DHT22;9722;48.754;8.868;2023-02-13T17:06:35;6.60;61.20
19180;DHT22;9722;48.754;8.868;2023-02-13T17:10:01;6.40;62.10
19180;DHT22;9722;48.754;8.868;2023-02-13T17:13:23;6.20;62.80
19180;DHT22;9722;48.754;8.868;2023-02-13T17:16:44;6.00;63.50
19180;DHT22;9722;48.754;8.868;2023-02-13T17:20:05;5.80;64.30
19180;DHT22;9722;48.754;8.868;2023-02-13T17:23:26;5.70;65.10
19180;DHT22;9722;48.754;8.868;2023-02-13T17:26:47;5.60;65.60
19180;DHT22;9722;48.754;8.868;2023-02-13T17:30:20;5.40;66.20
19180;DHT22;9722;48.754;8.868;2023-02-13T17:33:40;5.30;66.90
19180;DHT22;9722;48.754;8.868;2023-02-13T17:37:01;5.10;67.10
19180;DHT22;9722;48.754;8.868;2023-02-13T17:40:23;5.00;67.60
19180;DHT22;9722;48.754;8.868;2023-02-13T17:43:44;4.80;68.20
19180;DHT22;9722;48.754;8.868;2023-02-13T17:47:05;4.60;69.00
19180;DHT22;9722;48.754;8.868;2023-02-13T17:50:27;4.50;69.80
19180;DHT22;9722;48.754;8.868;2023-02-13T17:53:48;4.40;70.40
19180;DHT22;9722;48.754;8.868;2023-02-13T17:57:11;4.20;71.50
19180;DHT22;9722;48.754;8.868;2023-02-13T18:00:32;4.10;71.10
19180;DHT22;9722;48.754;8.868;2023-02-13T18:03:54;3.90;71.30
19180;DHT22;9722;48.754;8.868;2023-02-13T18:07:18;3.70;71.70
19180;DHT22;9722;48.754;8.868;2023-02-13T18:10:38;3.50;72.10
19180;DHT22;9722;48.754;8.868;2023-02-13T18:13:59;3.40;72.70
19180;DHT22;9722;48.754;8.868;2023-02-13T18:17:21;3.20;73.70
19180;DHT22;9722;48.754;8.868;2023-02-13T18:20:42;3.20;74.70
19180;DHT22;9722;48.754;8.868;2023-02-13T18:24:03;3.20;75.20
19180;DHT22;9722;48.754;8.868;2023-02-13T18:27:24;3.10;75.60
19180;DHT22;9722;48.754;8.868;2023-02-13T18:30:46;3.10;76.70
19180;DHT22;9722;48.754;8.868;2023-02-13T18:34:06;3.10;77.20
19180;DHT22;9722;48.754;8.868;2023-02-13T18:37:27;3.00;77.30
19180;DHT22;9722;48.754;8.868;2023-02-13T18:40:49;3.00;77.60
19180;DHT22;9722;48.754;8.868;2023-02-13T18:44:10;2.90;78.00
19180;DHT22;9722;48.754;8.868;2023-02-13T18:47:30;2.80;78.30
19180;DHT22;9722;48.754;8.868;2023-02-13T18:50:51;2.70;78.60
19180;DHT22;9722;48.754;8.868;2023-02-13T18:54:11;2.60;78.90
19180;DHT22;9722;48.754;8.868;2023-02-13T18:57:32;2.50;79.40
19180;DHT22;9722;48.754;8.868;2023-02-13T19:00:53;2.40;79.80
19180;DHT22;9722;48.754;8.868;2023-02-13T19:04:13;2.40;80.30
19180;DHT22;9722;48.754;8.868;2023-02-13T19:07:34;2.20;80.80
19180;DHT22;9722;48.754;8.868;2023-02-13T19:10:58;2.10;81.00
19180;DHT22;9722;48.754;8.868;2023-02-13T19:14:19;2.10;81.90
19180;DHT22;9722;48.754;8.868;2023-02-13T19:17:41;2.00;82.40
19180;DHT22;9722;48.754;8.868;2023-02-13T19:21:02;1.90;83.00
19180;DHT22;9722;48.754;8.868;2023-02-13T19:24:23;1.80;83.50
19180;DHT22;9722;48.754;8.868;2023-02-13T19:27:43;1.80;84.40
19180;DHT22;9722;48.754;8.868;2023-02-13T19:31:06;1.70;85.00
19180;DHT22;9722;48.754;8.868;2023-02-13T19:34:27;1.60;85.80
19180;DHT22;9722;48.754;8.868;2023-02-13T19:37:47;1.60;87.00
19180;DHT22;9722;48.754;8.868;2023-02-13T19:41:10;1.50;87.60
19180;DHT22;9722;48.754;8.868;2023-02-13T19:44:31;1.50;88.30
19180;DHT22;9722;48.754;8.868;2023-02-13T19:47:51;1.40;89.00
19180;DHT22;9722;48.754;8.868;2023-02-13T19:51:16;1.30;89.90
19180;DHT22;9722;48.754;8.868;2023-02-13T19:54:36;1.30;90.30
19180;DHT22;9722;48.754;8.868;2023-02-13T19:57:57;1.20;90.70
19180;DHT22;9722;48.754;8.868;2023-02-13T20:01:19;1.20;91.20
19180;DHT22;9722;48.754;8.868;2023-02-13T20:04:40;1.20;91.80
19180;DHT22;9722;48.754;8.868;2023-02-13T20:08:01;1.10;92.10
19180;DHT22;9722;48.754;8.868;2023-02-13T20:11:21;1.00;92.60
19180;DHT22;9722;48.754;8.868;2023-02-13T20:14:42;1.00;93.20
19180;DHT22;9722;48.754;8.868;2023-02-13T20:18:03;1.00;93.70
19180;DHT22;9722;48.754;8.868;2023-02-13T20:21:23;1.00;94.20
19180;DHT22;9722;48.754;8.868;2023-02-13T20:24:44;0.90;94.60
19180;DHT22;9722;48.754;8.868;2023-02-13T20:28:06;0.90;95.00
19180;DHT22;9722;48.754;8.868;2023-02-13T20:31:30;0.90;95.40
19180;DHT22;9722;48.754;8.868;2023-02-13T20:34:52;0.80;95.70
19180;DHT22;9722;48.754;8.868;2023-02-13T20:38:13;0.80;95.90
19180;DHT22;9722;48.754;8.868;2023-02-13T20:41:35;0.70;96.00
19180;DHT22;9722;48.754;8.868;2023-02-13T20:44:56;0.70;96.20
19180;DHT22;9722;48.754;8.868;2023-02-13T20:48:17;0.60;96.30
19180;DHT22;9722;48.754;8.868;2023-02-13T20:51:37;0.60;96.60
19180;DHT22;9722;48.754;8.868;2023-02-13T20:54:58;0.50;96.70
19180;DHT22;9722;48.754;8.868;2023-02-13T20:58:20;0.40;96.60
19180;DHT22;9722;48.754;8.868;2023-02-13T21:01:41;0.40;96.90
19180;DHT22;9722;48.754;8.868;2023-02-13T21:05:03;0.30;97.20
19180;DHT22;9722;48.754;8.868;2023-02-13T21:08:24;0.30;97.40
19180;DHT22;9722;48.754;8.868;2023-02-13T21:11:44;0.30;97.50
19180;DHT22;9722;48.754;8.868;2023-02-13T21:15:05;0.30;97.80
19180;DHT22;9722;48.754;8.868;2023-02-13T21:18:25;0.30;97.80
19180;DHT22;9722;48.754;8.868;2023-02-13T21:21:46;0.20;98.00
19180;DHT22;9722;48.754;8.868;2023-02-13T21:25:07;0.20;98.10
19180;DHT22;9722;48.754;8.868;2023-02-13T21:28:27;0.20;98.30
19180;DHT22;9722;48.754;8.868;2023-02-13T21:31:48;0.20;98.40
19180;DHT22;9722;48.754;8.868;2023-02-13T21:35:10;0.20;98.50
19180;DHT22;9722;48.754;8.868;2023-02-13T21:38:30;0.20;98.60
19180;DHT22;9722;48.754;8.868;2023-02-13T21:41:51;0.20;98.80
19180;DHT22;9722;48.754;8.868;2023-02-13T21:45:11;0.10;98.90
19180;DHT22;9722;48.754;8.868;2023-02-13T21:48:32;0.10;99.10
19180;DHT22;9722;48.754;8.868;2023-02-13T21:51:52;0.10;99.30
19180;DHT22;9722;48.754;8.868;2023-02-13T21:55:13;0.10;99.40
19180;DHT22;9722;48.754;8.868;2023-02-13T21:58:34;0.10;99.50
19180;DHT22;9722;48.754;8.868;2023-02-13T22:01:55;0.00;99.60
19180;DHT22;9722;48.754;8.868;2023-02-13T22:05:17;0.00;99.60
19180;DHT22;9722;48.754;8.868;2023-02-13T22:08:38;-0.10;99.70
19180;DHT22;9722;48.754;8.868;2023-02-13T22:11:58;-0.10;99.80
19180;DHT22;9722;48.754;8.868;2023-02-13T22:15:19;-0.10;99.70
19180;DHT22;9722;48.754;8.868;2023-02-13T22:18:42;-0.10;99.80
19180;DHT22;9722;48.754;8.868;2023-02-13T22:22:03;-0.20;99.90
19180;DHT22;9722;48.754;8.868;2023-02-13T22:25:24;-0.20;99.90
19180;DHT22;9722;48.754;8.868;2023-02-13T22:28:44;-0.20;99.90
19180;DHT22;9722;48.754;8.868;2023-02-13T22:32:05;-0.20;99.90
19180;DHT22;9722;48.754;8.868;2023-02-13T22:35:25;-0.20;99.90
19180;DHT22;9722;48.754;8.868;2023-02-13T22:38:46;-0.20;99.90
19180;DHT22;9722;48.754;8.868;2023-02-13T22:42:07;-0.30;99.90
19180;DHT22;9722;48.754;8.868;2023-02-13T22:45:27;-0.20;99.90
19180;DHT22;9722;48.754;8.868;2023-02-13T22:48:48;-0.20;99.90
19180;DHT22;9722;48.754;8.868;2023-02-13T22:52:11;-0.30;99.90
19180;DHT22;9722;48.754;8.868;2023-02-13T22:55:32;-0.20;99.90
19180;DHT22;9722;48.754;8.868;2023-02-13T22:58:53;-0.30;99.90
19180;DHT22;9722;48.754;8.868;2023-02-13T23:02:13;-0.30;99.90
19180;DHT22;9722;48.754;8.868;2023-02-13T23:05:37;-0.30;99.90
19180;DHT22;9722;48.754;8.868;2023-02-13T23:08:58;-0.30;99.90
19180;DHT22;9722;48.754;8.868;2023-02-13T23:12:19;-0.30;99.90
19180;DHT22;9722;48.754;8.868;2023-02-13T23:15:55;-0.30;99.90
19180;DHT22;9722;48.754;8.868;2023-02-13T23:19:15;-0.30;99.90
19180;DHT22;9722;48.754;8.868;2023-02-13T23:22:36;-0.30;99.90
19180;DHT22;9722;48.754;8.868;2023-02-13T23:25:56;-0.30;99.90
19180;DHT22;9722;48.754;8.868;2023-02-13T23:29:17;-0.30;99.90
19180;DHT22;9722;48.754;8.868;2023-02-13T23:32:38;-0.30;99.90
19180;DHT22;9722;48.754;8.868;2023-02-13T23:35:58;-0.30;99.90
19180;DHT22;9722;48.754;8.868;2023-02-13T23:39:20;-0.30;99.90
19180;DHT22;9722;48.754;8.868;2023-02-13T23:42:41;-0.30;99.90
19180;DHT22;9722;48.754;8.868;2023-02-13T23:46:03;-0.30;99.90